RoSS Salvaggio — WDC2805 — position and weather

sailwx.info

Track history (hours):
 
Tides and Currents Weather Stations Pressure Air Temp Water Temp Dewpoint Dewpoint Depression Visibility Wind Speed Wind Dir Waves Ship Positions

RoSS Salvaggio

Owner: Marquette Transportation Company Gulf-Inland, LLC, Jefferson, LA. More information available from US FCC via Universal Licensing System and Coast Guard Vessel Documentation Center.

Last reported at 2018-Jan-12 12:54 UTC. Time now 2018-Jan-19 00:06 UTC.
Position N 29°50' W 092°18'.

Length 22 m; draft 3 m.

Type: . MMSI: 366997940.

Date/timePositionNaut miles runAvg speedWind from/ knotsBaromVisibWave heightAir tempDewpointWater temp
2018-Jan-12 12:54N 29°50' W 092°18'3 4.3
2018-Jan-12 12:18N 29°48' W 092°16'2 4.7
2018-Jan-12 11:57N 29°48' W 092°14'2 3.8
2018-Jan-12 11:31N 29°47' W 092°12'1 2.7
2018-Jan-12 11:00N 29°47' W 092°11'1 2.6
2018-Jan-12 10:30N 29°47' W 092°09'3 5.6
2018-Jan-12 10:00N 29°48' W 092°06'3 5.5
2018-Jan-12 09:31N 29°49' W 092°03'  
2018-Jan-07 20:08N 29°48' W 092°05'1 6.6
2018-Jan-07 20:00N 29°48' W 092°06'3 6.3
2018-Jan-07 19:30N 29°47' W 092°10'2 4.3
2018-Jan-07 19:00N 29°47' W 092°12'1 1.2
2018-Jan-07 18:30N 29°47' W 092°13'1 1.2
2018-Jan-07 18:00N 29°47' W 092°13'0 0.1
2018-Jan-07 17:30N 29°48' W 092°13'0 0.0
2018-Jan-07 17:00N 29°48' W 092°13'0 0.0
2018-Jan-07 16:30N 29°48' W 092°13'0 0.0
2018-Jan-07 16:00N 29°48' W 092°13'0 0.1
2018-Jan-07 15:30N 29°48' W 092°13'2 4.7
2018-Jan-07 15:00N 29°48' W 092°16'3 5.8
2018-Jan-07 14:30N 29°50' W 092°19'41 5.6
2018-Jan-07 07:15N 29°56' W 093°05'2 5.6
2018-Jan-07 06:57N 29°56' W 093°07'4 5.1
2018-Jan-07 06:08N 29°58' W 093°11'1 5.9
2018-Jan-07 05:55N 29°59' W 093°12'2 5.6
2018-Jan-07 05:30N 30°01' W 093°14'3 5.2
2018-Jan-07 05:00N 30°03' W 093°16'3 5.5
2018-Jan-07 04:30N 30°05' W 093°17'1 2.3
2018-Jan-07 04:00N 30°06' W 093°18'0 0.0
2018-Jan-07 03:30N 30°06' W 093°18'1 1.8
2018-Jan-07 03:00N 30°06' W 093°19'3 5.0
2018-Jan-07 02:30N 30°04' W 093°21'2 4.3
2018-Jan-07 02:00N 30°04' W 093°23'3 5.3
2018-Jan-07 01:30N 30°04' W 093°27'6 5.6
2018-Jan-07 00:30N 30°04' W 093°33'3 6.3
2018-Jan-07 00:00N 30°04' W 093°37'3 6.3
2018-Jan-06 23:30N 30°04' W 093°40'71 4.7
2018-Jan-06 08:28N 29°31' W 094°53'3 6.4
2018-Jan-06 08:00N 29°34' W 094°55'3 6.4
2018-Jan-06 07:30N 29°37' W 094°57'3 6.6
2018-Jan-06 07:00N 29°40' W 094°58'3 5.1
2018-Jan-06 06:29N 29°42' W 095°00'6 0.2
2018-Jan-05 04:42N 29°46' W 095°05'1 4.8
2018-Jan-05 04:30N 29°45' W 095°04'4 3.7
2018-Jan-05 03:33N 29°42' W 095°01'0 4.9
2018-Jan-05 03:30N 29°42' W 095°01'2 5.0
2018-Jan-05 03:00N 29°41' W 094°59'3 5.1
2018-Jan-05 02:30N 29°38' W 094°58'2 5.0
2018-Jan-05 02:00N 29°36' W 094°57'3 5.2
2018-Jan-05 01:30N 29°34' W 094°55'3 5.6
2018-Jan-05 01:00N 29°32' W 094°53'  
Track history (hours):
 
Tides and Currents Weather Stations Pressure Air Temp Water Temp Dewpoint Dewpoint Depression Visibility Wind Speed Wind Dir Waves Ship Positions

RoSS Salvaggio

Owner: Marquette Transportation Company Gulf-Inland, LLC, Jefferson, LA. More information available from US FCC via Universal Licensing System and Coast Guard Vessel Documentation Center.

Last reported at 2018-Jan-12 12:54 UTC. Time now 2018-Jan-19 00:06 UTC.
Position N 29°50' W 092°18'.

Length 22 m; draft 3 m.

Type: . MMSI: 366997940.

Date/timePositionNaut miles runAvg speedWind from/ knotsBaromVisibWave heightAir tempDewpointWater temp
2018-Jan-12 12:54N 29°50' W 092°18'3 4.3
2018-Jan-12 12:18N 29°48' W 092°16'2 4.7
2018-Jan-12 11:57N 29°48' W 092°14'2 3.8
2018-Jan-12 11:31N 29°47' W 092°12'1 2.7
2018-Jan-12 11:00N 29°47' W 092°11'1 2.6
2018-Jan-12 10:30N 29°47' W 092°09'3 5.6
2018-Jan-12 10:00N 29°48' W 092°06'3 5.5
2018-Jan-12 09:31N 29°49' W 092°03'  
2018-Jan-07 20:08N 29°48' W 092°05'1 6.6
2018-Jan-07 20:00N 29°48' W 092°06'3 6.3
2018-Jan-07 19:30N 29°47' W 092°10'2 4.3
2018-Jan-07 19:00N 29°47' W 092°12'1 1.2
2018-Jan-07 18:30N 29°47' W 092°13'1 1.2
2018-Jan-07 18:00N 29°47' W 092°13'0 0.1
2018-Jan-07 17:30N 29°48' W 092°13'0 0.0
2018-Jan-07 17:00N 29°48' W 092°13'0 0.0
2018-Jan-07 16:30N 29°48' W 092°13'0 0.0
2018-Jan-07 16:00N 29°48' W 092°13'0 0.1
2018-Jan-07 15:30N 29°48' W 092°13'2 4.7
2018-Jan-07 15:00N 29°48' W 092°16'3 5.8
2018-Jan-07 14:30N 29°50' W 092°19'41 5.6
2018-Jan-07 07:15N 29°56' W 093°05'2 5.6
2018-Jan-07 06:57N 29°56' W 093°07'4 5.1
2018-Jan-07 06:08N 29°58' W 093°11'1 5.9
2018-Jan-07 05:55N 29°59' W 093°12'2 5.6
2018-Jan-07 05:30N 30°01' W 093°14'3 5.2
2018-Jan-07 05:00N 30°03' W 093°16'3 5.5
2018-Jan-07 04:30N 30°05' W 093°17'1 2.3
2018-Jan-07 04:00N 30°06' W 093°18'0 0.0
2018-Jan-07 03:30N 30°06' W 093°18'1 1.8
2018-Jan-07 03:00N 30°06' W 093°19'3 5.0
2018-Jan-07 02:30N 30°04' W 093°21'2 4.3
2018-Jan-07 02:00N 30°04' W 093°23'3 5.3
2018-Jan-07 01:30N 30°04' W 093°27'6 5.6
2018-Jan-07 00:30N 30°04' W 093°33'3 6.3
2018-Jan-07 00:00N 30°04' W 093°37'3 6.3
2018-Jan-06 23:30N 30°04' W 093°40'71 4.7
2018-Jan-06 08:28N 29°31' W 094°53'3 6.4
2018-Jan-06 08:00N 29°34' W 094°55'3 6.4
2018-Jan-06 07:30N 29°37' W 094°57'3 6.6
2018-Jan-06 07:00N 29°40' W 094°58'3 5.1
2018-Jan-06 06:29N 29°42' W 095°00'6 0.2
2018-Jan-05 04:42N 29°46' W 095°05'1 4.8
2018-Jan-05 04:30N 29°45' W 095°04'4 3.7
2018-Jan-05 03:33N 29°42' W 095°01'0 4.9
2018-Jan-05 03:30N 29°42' W 095°01'2 5.0
2018-Jan-05 03:00N 29°41' W 094°59'3 5.1
2018-Jan-05 02:30N 29°38' W 094°58'2 5.0
2018-Jan-05 02:00N 29°36' W 094°57'3 5.2
2018-Jan-05 01:30N 29°34' W 094°55'3 5.6
2018-Jan-05 01:00N 29°32' W 094°53'  

Dump ship's entire track history